createdAt,value
2017-06-02T00:00:50.820Z,17.40
2017-06-02T00:03:19.384Z,17.30
2017-06-02T00:05:47.919Z,17.30
2017-06-02T00:08:16.404Z,17.30
2017-06-02T00:10:44.880Z,17.20
2017-06-02T00:13:13.401Z,17.30
2017-06-02T00:15:41.852Z,17.20
2017-06-02T00:18:10.329Z,17.10
2017-06-02T00:20:38.773Z,17.10
2017-06-02T00:23:07.187Z,17.20
2017-06-02T00:25:34.850Z,17.20
2017-06-02T00:28:03.345Z,17.30
2017-06-02T00:30:31.791Z,17.20
2017-06-02T00:33:00.256Z,17.20
2017-06-02T00:35:28.719Z,17.10
2017-06-02T00:37:57.158Z,17.10
2017-06-02T00:40:25.596Z,17.00
2017-06-02T00:42:54.103Z,17.00
2017-06-02T00:45:22.591Z,16.90
2017-06-02T00:47:51.068Z,16.90
2017-06-02T00:50:19.527Z,17.00
2017-06-02T00:52:47.999Z,16.90
2017-06-02T00:55:16.469Z,16.80
2017-06-02T00:57:44.929Z,16.80
2017-06-02T01:00:13.453Z,16.80
2017-06-02T01:02:42.005Z,16.90
2017-06-02T01:05:10.472Z,16.90
2017-06-02T01:07:38.947Z,16.80
2017-06-02T01:10:07.410Z,16.80
2017-06-02T01:12:35.905Z,16.80
2017-06-02T01:15:04.396Z,17.00
2017-06-02T01:17:32.876Z,16.90
2017-06-02T01:20:01.333Z,17.10
2017-06-02T01:22:29.812Z,17.10
2017-06-02T01:24:58.441Z,17.10
2017-06-02T01:27:26.876Z,17.20
2017-06-02T01:29:55.315Z,17.20
2017-06-02T01:32:23.786Z,17.20
2017-06-02T01:34:52.239Z,17.30
2017-06-02T01:37:20.676Z,17.30
2017-06-02T01:39:49.155Z,17.30
2017-06-02T01:42:17.632Z,17.30
2017-06-02T01:44:46.128Z,17.30
2017-06-02T01:47:14.619Z,17.40
2017-06-02T01:49:43.215Z,17.40
2017-06-02T01:52:11.698Z,17.50
2017-06-02T01:54:40.085Z,17.40
2017-06-02T01:57:08.439Z,17.40
2017-06-02T01:59:36.866Z,17.30
2017-06-02T02:02:06.185Z,17.20
2017-06-02T02:04:34.805Z,17.20
2017-06-02T02:07:03.285Z,17.20
2017-06-02T02:09:31.826Z,17.30
2017-06-02T02:12:00.707Z,17.40
2017-06-02T02:14:29.157Z,17.40
2017-06-02T02:16:57.655Z,17.50
2017-06-02T02:19:26.141Z,17.50
2017-06-02T02:21:54.680Z,17.50
2017-06-02T02:24:23.172Z,17.40
2017-06-02T02:26:51.668Z,17.40
2017-06-02T02:29:20.177Z,17.30
2017-06-02T02:31:48.688Z,17.20
2017-06-02T02:34:17.229Z,17.10
2017-06-02T02:36:45.755Z,17.20
2017-06-02T02:39:14.247Z,17.10
2017-06-02T02:41:42.745Z,17.10
2017-06-02T02:44:11.255Z,17.10
2017-06-02T02:46:39.766Z,17.10
2017-06-02T02:49:08.255Z,17.20
2017-06-02T02:51:36.741Z,17.10
2017-06-02T02:54:05.232Z,17.10
2017-06-02T02:56:33.732Z,17.00
2017-06-02T02:59:02.183Z,17.00
2017-06-02T03:01:30.659Z,17.00
2017-06-02T03:03:59.161Z,17.10
2017-06-02T03:06:27.636Z,17.10
2017-06-02T03:08:56.131Z,17.10
2017-06-02T03:11:24.633Z,17.10
2017-06-02T03:13:53.067Z,17.20
2017-06-02T03:16:21.657Z,17.20
2017-06-02T03:18:50.175Z,17.20
2017-06-02T03:21:18.706Z,17.20
2017-06-02T03:23:47.229Z,17.20
2017-06-02T03:26:15.729Z,17.20
2017-06-02T03:28:44.202Z,17.20
2017-06-02T03:31:11.984Z,17.20
2017-06-02T03:33:40.470Z,17.40
2017-06-02T03:36:09.048Z,17.30
2017-06-02T03:38:37.535Z,17.20
2017-06-02T03:41:06.086Z,17.20
2017-06-02T03:43:34.635Z,17.20
2017-06-02T03:46:03.240Z,17.10
2017-06-02T03:48:31.807Z,17.00
2017-06-02T03:51:00.317Z,16.90
2017-06-02T03:53:28.903Z,16.90
2017-06-02T03:58:52.804Z,17.10
2017-06-02T04:01:24.836Z,17.20
2017-06-02T04:03:53.448Z,17.40
2017-06-02T04:09:27.793Z,17.50
2017-06-02T04:11:56.313Z,17.70
2017-06-02T04:14:24.717Z,17.80
2017-06-02T04:16:53.092Z,17.90
2017-06-02T04:19:21.507Z,18.00
2017-06-02T04:21:49.891Z,18.00
2017-06-02T04:24:18.342Z,18.10
2017-06-02T04:26:46.734Z,18.20
2017-06-02T04:29:15.323Z,18.20
2017-06-02T04:31:43.694Z,18.20
2017-06-02T04:34:12.206Z,18.40
2017-06-02T04:36:40.639Z,18.50
2017-06-02T04:39:09.004Z,18.60
2017-06-02T04:41:36.618Z,18.50
2017-06-02T04:44:04.980Z,18.70
2017-06-02T04:46:33.368Z,18.80
2017-06-02T04:49:01.728Z,19.00
2017-06-02T04:51:30.120Z,19.20
2017-06-02T04:53:58.487Z,19.40
2017-06-02T04:56:26.879Z,19.60
2017-06-02T04:58:56.025Z,19.70
2017-06-02T05:01:24.423Z,19.90
2017-06-02T05:03:52.789Z,19.90
2017-06-02T05:06:21.176Z,19.90
2017-06-02T05:08:49.532Z,20.00
2017-06-02T05:11:17.139Z,20.00
2017-06-02T05:13:45.603Z,20.70
2017-06-02T05:16:13.960Z,21.20
2017-06-02T05:18:42.358Z,21.90
2017-06-02T05:21:10.707Z,23.80
2017-06-02T05:23:39.073Z,25.40
2017-06-02T05:26:07.499Z,26.10
2017-06-02T05:28:35.995Z,26.80
2017-06-02T05:31:04.447Z,26.50
2017-06-02T05:33:32.914Z,26.30
2017-06-02T05:36:01.498Z,26.30
2017-06-02T05:38:29.952Z,26.40
2017-06-02T05:40:58.361Z,27.60
2017-06-02T05:43:26.735Z,28.90
2017-06-02T05:45:55.081Z,29.70
2017-06-02T05:48:23.503Z,30.00
2017-06-02T05:50:51.867Z,30.00
2017-06-02T05:53:20.356Z,30.30
2017-06-02T05:55:48.723Z,31.70
2017-06-02T05:58:17.096Z,32.60
2017-06-02T06:00:45.482Z,32.60
2017-06-02T06:03:13.841Z,32.00
2017-06-02T06:05:42.181Z,31.50
2017-06-02T06:08:10.550Z,32.00
2017-06-02T06:10:38.921Z,33.20
2017-06-02T06:13:07.473Z,34.10
2017-06-02T06:15:35.911Z,35.20
2017-06-02T06:18:04.326Z,36.00
2017-06-02T06:20:32.742Z,36.90
2017-06-02T06:23:01.150Z,37.20
2017-06-02T06:25:29.630Z,37.30
2017-06-02T06:27:58.099Z,37.10
2017-06-02T06:30:45.454Z,36.90
2017-06-02T06:33:13.908Z,37.30
2017-06-02T06:35:43.336Z,38.20
2017-06-02T06:38:13.766Z,38.30
2017-06-02T06:40:42.297Z,37.90
2017-06-02T06:43:11.964Z,37.90
2017-06-02T06:48:54.639Z,36.60
2017-06-02T06:53:58.513Z,36.70
2017-06-02T06:56:30.773Z,35.20
2017-06-02T06:58:59.311Z,35.60
2017-06-02T07:01:27.070Z,35.60
2017-06-02T07:04:03.489Z,36.40
2017-06-02T07:06:31.995Z,37.90
2017-06-02T07:09:02.498Z,38.40
2017-06-02T07:11:30.349Z,38.30
2017-06-02T07:13:58.853Z,38.40
2017-06-02T07:16:36.959Z,38.50
2017-06-02T07:19:05.579Z,38.90
2017-06-02T07:30:25.788Z,37.30
2017-06-02T07:47:22.320Z,37.10
2017-06-02T07:49:53.611Z,37.00
2017-06-02T07:52:27.949Z,36.20
2017-06-02T07:57:51.259Z,36.90
2017-06-02T08:00:19.787Z,36.80
2017-06-02T08:02:52.466Z,36.40
2017-06-02T08:05:21.140Z,36.30
2017-06-02T08:07:52.960Z,36.20
2017-06-02T08:10:21.175Z,36.20
2017-06-02T08:12:49.643Z,36.40
2017-06-02T08:15:18.403Z,36.40
2017-06-02T08:17:50.735Z,36.40
2017-06-02T08:20:20.092Z,35.80
2017-06-02T08:22:54.029Z,35.80
2017-06-02T08:25:23.169Z,36.80
2017-06-02T08:33:39.513Z,36.50
2017-06-02T08:36:09.142Z,37.50
2017-06-02T08:50:15.346Z,38.80
2017-06-02T08:53:05.413Z,38.30
2017-06-02T08:58:27.086Z,37.80
2017-06-02T09:00:55.602Z,37.10
2017-06-02T09:03:42.932Z,36.40
2017-06-02T09:06:11.336Z,36.40
2017-06-02T09:08:38.955Z,36.30
2017-06-02T09:11:07.409Z,36.30
2017-06-02T09:13:37.126Z,36.30
2017-06-02T09:16:05.593Z,37.10
2017-06-02T09:18:38.485Z,37.10
2017-06-02T09:21:08.382Z,37.40
2017-06-02T09:23:37.093Z,37.30
2017-06-02T09:26:06.881Z,37.20
2017-06-02T09:28:36.265Z,36.50
2017-06-02T09:31:07.969Z,36.50
2017-06-02T09:36:29.777Z,37.00
2017-06-02T09:38:58.463Z,37.00
2017-06-02T09:41:27.019Z,36.80
2017-06-02T09:44:01.465Z,36.20
2017-06-02T09:46:29.956Z,36.00
2017-06-02T09:48:58.409Z,36.00
2017-06-02T09:51:26.122Z,36.00
2017-06-02T09:53:54.595Z,36.50
2017-06-02T09:56:23.041Z,37.00
2017-06-02T09:58:51.428Z,36.00
2017-06-02T10:01:19.922Z,36.20
2017-06-02T10:03:48.303Z,35.80
2017-06-02T10:06:16.682Z,36.00
2017-06-02T10:08:45.894Z,35.50
2017-06-02T10:11:14.265Z,36.10
2017-06-02T10:13:42.610Z,35.80
2017-06-02T10:16:11.004Z,36.00
2017-06-02T10:18:39.404Z,35.70
2017-06-02T10:21:07.754Z,35.40
2017-06-02T10:23:36.136Z,34.90
2017-06-02T10:26:04.511Z,35.20
2017-06-02T10:28:32.918Z,35.30
2017-06-02T10:31:02.292Z,36.20
2017-06-02T10:33:30.809Z,37.10
2017-06-02T10:35:59.265Z,37.20
2017-06-02T10:38:27.660Z,37.00
2017-06-02T10:40:56.028Z,35.70
2017-06-02T10:43:24.378Z,35.30
2017-06-02T10:45:53.227Z,35.40
2017-06-02T10:48:21.587Z,35.80
2017-06-02T10:50:49.931Z,35.40
2017-06-02T10:53:18.427Z,35.10
2017-06-02T10:55:46.782Z,34.40
2017-06-02T10:58:15.182Z,34.50
2017-06-02T11:00:43.546Z,34.70
2017-06-02T11:03:11.887Z,34.90
2017-06-02T11:05:40.276Z,34.80
2017-06-02T11:08:08.645Z,34.30
2017-06-02T11:10:37.071Z,34.30
2017-06-02T11:13:05.503Z,33.90
2017-06-02T11:15:33.880Z,33.70
2017-06-02T11:18:02.251Z,34.00
2017-06-02T11:20:29.840Z,34.00
2017-06-02T11:22:58.203Z,33.30
2017-06-02T11:25:26.573Z,33.50
2017-06-02T11:27:54.931Z,33.70
2017-06-02T11:30:23.294Z,33.70
2017-06-02T11:32:51.700Z,33.70
2017-06-02T11:35:20.067Z,33.50
2017-06-02T11:37:48.443Z,33.80
2017-06-02T11:40:16.077Z,33.80
2017-06-02T11:42:44.484Z,33.30
2017-06-02T11:45:12.896Z,32.50
2017-06-02T11:47:41.278Z,32.40
2017-06-02T11:50:09.651Z,32.20
2017-06-02T11:52:38.022Z,32.40
2017-06-02T11:55:06.419Z,32.60
2017-06-02T11:57:34.781Z,32.70
2017-06-02T12:00:03.167Z,32.50
2017-06-02T12:02:31.528Z,32.60
2017-06-02T12:04:59.305Z,32.60
2017-06-02T12:07:27.746Z,32.40
2017-06-02T12:09:56.139Z,32.10
2017-06-02T12:12:24.502Z,32.00
2017-06-02T12:14:52.895Z,31.90
2017-06-02T12:17:21.330Z,31.60
2017-06-02T12:19:49.666Z,31.30
2017-06-02T12:22:18.155Z,31.00
2017-06-02T12:24:46.522Z,30.80
2017-06-02T12:27:14.883Z,30.70
2017-06-02T12:29:43.263Z,30.70
2017-06-02T12:32:11.608Z,30.80
2017-06-02T12:34:39.968Z,30.90
2017-06-02T12:37:08.406Z,31.00
2017-06-02T12:39:36.783Z,31.00
2017-06-02T12:42:05.129Z,31.10
2017-06-02T12:44:33.507Z,31.30
2017-06-02T12:47:01.850Z,31.20
2017-06-02T12:49:30.217Z,30.80
2017-06-02T12:51:58.594Z,30.60
2017-06-02T12:54:26.982Z,30.50
2017-06-02T12:56:55.387Z,30.20
2017-06-02T12:59:23.783Z,29.80
2017-06-02T13:01:52.166Z,30.20
2017-06-02T13:04:20.550Z,30.80
2017-06-02T13:06:48.896Z,30.90
2017-06-02T13:09:17.248Z,31.10
2017-06-02T13:11:45.618Z,31.10
2017-06-02T13:14:13.999Z,30.60
2017-06-02T13:16:42.355Z,30.40
2017-06-02T13:19:09.974Z,30.40
2017-06-02T13:21:38.318Z,30.50
2017-06-02T13:24:06.662Z,30.70
2017-06-02T13:26:35.027Z,30.80
2017-06-02T13:29:03.418Z,30.60
2017-06-02T13:31:31.791Z,30.50
2017-06-02T13:34:00.199Z,30.50
2017-06-02T13:36:28.567Z,30.60
2017-06-02T13:38:56.913Z,30.50
2017-06-02T13:41:25.289Z,30.40
2017-06-02T13:43:53.627Z,30.30
2017-06-02T13:46:21.990Z,30.50
2017-06-02T13:48:50.364Z,30.50
2017-06-02T13:51:18.722Z,30.70
2017-06-02T13:53:47.100Z,30.60
2017-06-02T13:56:15.522Z,30.90
2017-06-02T13:58:43.932Z,31.10
2017-06-02T14:01:12.287Z,31.20
2017-06-02T14:03:40.669Z,31.00
2017-06-02T14:06:09.053Z,31.10
2017-06-02T14:08:37.583Z,30.90
2017-06-02T14:11:05.927Z,30.80
2017-06-02T14:13:34.285Z,30.50
2017-06-02T14:16:02.659Z,30.40
2017-06-02T14:18:31.012Z,30.30
2017-06-02T14:20:59.370Z,30.00
2017-06-02T14:23:27.767Z,29.90
2017-06-02T14:25:56.225Z,29.90
2017-06-02T14:28:24.592Z,30.00
2017-06-02T14:30:52.979Z,30.10
2017-06-02T14:33:21.375Z,29.90
2017-06-02T14:35:49.727Z,29.90
2017-06-02T14:38:18.086Z,29.90
2017-06-02T14:40:46.467Z,30.00
2017-06-02T14:43:14.811Z,29.90
2017-06-02T14:45:43.195Z,29.70
2017-06-02T14:48:11.552Z,29.80
2017-06-02T14:50:39.915Z,30.10
2017-06-02T14:53:08.287Z,30.30
2017-06-02T14:55:36.639Z,30.40
2017-06-02T14:58:05.003Z,30.30
2017-06-02T15:00:33.415Z,30.40
2017-06-02T15:03:01.779Z,30.40
2017-06-02T15:05:30.171Z,30.50
2017-06-02T15:07:58.550Z,30.60
2017-06-02T15:10:26.934Z,30.40
2017-06-02T15:12:55.324Z,30.30
2017-06-02T15:15:23.667Z,30.10
2017-06-02T15:17:52.032Z,29.60
2017-06-02T15:20:20.417Z,29.60
2017-06-02T15:22:48.778Z,29.50
2017-06-02T15:25:17.131Z,29.60
2017-06-02T15:27:45.507Z,29.60
2017-06-02T15:30:13.863Z,29.80
2017-06-02T15:32:42.266Z,29.80
2017-06-02T15:35:10.620Z,29.80
2017-06-02T15:37:38.979Z,29.60
2017-06-02T15:40:07.362Z,29.40
2017-06-02T15:42:35.775Z,29.20
2017-06-02T15:45:04.162Z,29.20
2017-06-02T15:47:32.638Z,29.10
2017-06-02T15:50:00.985Z,28.90
2017-06-02T15:52:29.341Z,28.70
2017-06-02T15:54:57.805Z,28.90
2017-06-02T15:57:26.211Z,28.70
2017-06-02T15:59:54.606Z,28.60
2017-06-02T16:02:22.967Z,28.50
2017-06-02T16:04:51.322Z,28.40
2017-06-02T16:07:19.725Z,28.40
2017-06-02T16:09:48.106Z,28.40
2017-06-02T16:12:16.495Z,28.50
2017-06-02T16:14:44.880Z,28.40
2017-06-02T16:17:13.265Z,28.30
2017-06-02T16:19:41.659Z,28.30
2017-06-02T16:22:10.012Z,28.40
2017-06-02T16:24:37.962Z,28.40
2017-06-02T16:27:06.341Z,28.30
2017-06-02T16:29:34.712Z,28.30
2017-06-02T16:32:03.086Z,28.20
2017-06-02T16:34:31.458Z,28.10
2017-06-02T16:36:59.832Z,28.10
2017-06-02T16:39:28.985Z,27.90
2017-06-02T16:41:57.351Z,27.80
2017-06-02T16:44:25.772Z,27.70
2017-06-02T16:46:54.208Z,27.50
2017-06-02T16:49:22.631Z,27.40
2017-06-02T16:51:51.025Z,27.50
2017-06-02T16:54:19.419Z,27.50
2017-06-02T16:56:47.829Z,27.60
2017-06-02T16:59:16.210Z,27.70
2017-06-02T17:01:44.605Z,27.80
2017-06-02T17:04:13.023Z,28.00
2017-06-02T17:06:41.394Z,27.90
2017-06-02T17:09:09.833Z,27.80
2017-06-02T17:11:38.258Z,27.90
2017-06-02T17:14:06.634Z,27.90
2017-06-02T17:16:35.052Z,27.80
2017-06-02T17:19:03.514Z,27.70
2017-06-02T17:21:31.875Z,27.70
2017-06-02T17:24:00.272Z,27.70
2017-06-02T17:26:28.635Z,27.60
2017-06-02T17:28:56.999Z,27.40
2017-06-02T17:31:25.377Z,27.30
2017-06-02T17:33:53.760Z,27.30
2017-06-02T17:36:22.112Z,27.30
2017-06-02T17:38:50.519Z,27.20
2017-06-02T17:41:18.891Z,27.00
2017-06-02T17:43:47.245Z,27.00
2017-06-02T17:46:15.722Z,26.90
2017-06-02T17:48:43.320Z,26.90
2017-06-02T17:51:11.705Z,26.80
2017-06-02T17:53:40.060Z,26.80
2017-06-02T17:56:08.466Z,26.70
2017-06-02T17:58:36.859Z,26.70
2017-06-02T18:01:05.261Z,26.60
2017-06-02T18:03:33.662Z,26.60
2017-06-02T18:06:02.012Z,26.50
2017-06-02T18:08:30.440Z,26.60
2017-06-02T18:10:58.806Z,26.60
2017-06-02T18:13:27.174Z,26.60
2017-06-02T18:15:55.786Z,26.60
2017-06-02T18:18:24.158Z,26.50
2017-06-02T18:20:52.512Z,26.60
2017-06-02T18:23:20.887Z,26.60
2017-06-02T18:25:49.306Z,26.60
2017-06-02T18:28:17.679Z,26.50
2017-06-02T18:30:46.027Z,26.50
2017-06-02T18:33:13.651Z,26.40
2017-06-02T18:35:42.055Z,26.30
2017-06-02T18:38:10.959Z,25.90
2017-06-02T18:40:40.134Z,25.60
2017-06-02T18:43:07.888Z,25.50
2017-06-02T18:45:36.489Z,25.10
2017-06-02T18:48:04.908Z,24.80
2017-06-02T18:50:33.429Z,24.40
2017-06-02T18:53:01.964Z,24.40
2017-06-02T18:55:30.480Z,24.00
2017-06-02T19:09:32.616Z,24.00
2017-06-02T19:12:10.882Z,22.70
2017-06-02T19:14:45.048Z,22.30
2017-06-02T19:17:23.071Z,22.10
2017-06-02T19:19:54.270Z,21.80
2017-06-02T19:22:22.067Z,21.50
2017-06-02T19:24:49.672Z,21.30
2017-06-02T19:27:18.012Z,21.00
2017-06-02T19:29:45.635Z,21.00
2017-06-02T19:32:13.240Z,20.80
2017-06-02T19:34:40.827Z,20.70
2017-06-02T19:37:09.213Z,20.70
2017-06-02T19:39:36.832Z,20.70
2017-06-02T19:42:04.446Z,20.80
2017-06-02T19:44:32.397Z,20.80
2017-06-02T19:47:00.118Z,20.70
2017-06-02T19:49:27.822Z,20.80
2017-06-02T19:51:55.439Z,20.80
2017-06-02T19:54:23.046Z,20.80
2017-06-02T19:56:50.660Z,20.90
2017-06-02T19:59:18.323Z,20.90
2017-06-02T20:01:45.931Z,21.00
2017-06-02T20:04:13.506Z,21.00
2017-06-02T20:06:41.124Z,21.00
2017-06-02T20:09:10.319Z,20.90
2017-06-02T20:11:38.706Z,20.80
2017-06-02T20:14:07.095Z,20.80
2017-06-02T20:16:34.695Z,20.80
2017-06-02T20:19:02.383Z,20.70
2017-06-02T20:21:29.955Z,20.80
2017-06-02T20:23:58.334Z,20.70
2017-06-02T20:26:25.942Z,20.70
2017-06-02T20:28:53.646Z,20.70
2017-06-02T20:31:21.239Z,20.70
2017-06-02T20:33:48.826Z,20.60
2017-06-02T20:36:16.409Z,20.60
2017-06-02T20:38:44.012Z,20.60
2017-06-02T20:41:11.603Z,20.50
2017-06-02T20:43:39.205Z,20.50
2017-06-02T20:46:06.832Z,20.50
2017-06-02T20:48:34.395Z,20.50
2017-06-02T20:51:02.053Z,20.50
2017-06-02T20:53:29.659Z,20.40
2017-06-02T20:55:57.267Z,20.40
2017-06-02T20:58:24.873Z,20.40
2017-06-02T21:00:53.261Z,20.50
2017-06-02T21:03:21.638Z,20.50
2017-06-02T21:05:49.223Z,20.40
2017-06-02T21:08:17.153Z,20.40
2017-06-02T21:10:45.683Z,20.50
2017-06-02T21:13:13.387Z,20.30
2017-06-02T21:15:40.974Z,20.20
2017-06-02T21:18:09.336Z,20.30
2017-06-02T21:20:36.956Z,20.30
2017-06-02T21:23:04.546Z,20.20
2017-06-02T21:25:32.134Z,20.30
2017-06-02T21:27:59.747Z,20.30
2017-06-02T21:30:27.347Z,20.30
2017-06-02T21:32:55.719Z,20.10
2017-06-02T21:35:23.323Z,20.10
2017-06-02T21:37:50.911Z,20.10
2017-06-02T21:40:18.519Z,20.00
2017-06-02T21:42:46.091Z,20.10
2017-06-02T21:45:13.691Z,20.10
2017-06-02T21:47:41.308Z,20.00
2017-06-02T21:50:08.893Z,19.90
2017-06-02T21:52:36.508Z,19.80
2017-06-02T21:55:04.093Z,19.80
2017-06-02T21:57:31.726Z,19.80
2017-06-02T21:59:59.344Z,19.80
2017-06-02T22:02:26.926Z,19.80
2017-06-02T22:04:55.294Z,19.70
2017-06-02T22:07:22.887Z,19.70
2017-06-02T22:09:50.488Z,19.70
2017-06-02T22:12:18.075Z,19.60
2017-06-02T22:14:45.699Z,19.60
2017-06-02T22:17:13.299Z,19.60
2017-06-02T22:19:41.647Z,19.70
2017-06-02T22:22:09.257Z,19.60
2017-06-02T22:24:36.838Z,19.70
2017-06-02T22:27:04.403Z,19.70
2017-06-02T22:29:32.011Z,19.70
2017-06-02T22:31:59.596Z,19.60
2017-06-02T22:34:27.167Z,19.60
2017-06-02T22:36:54.803Z,19.50
2017-06-02T22:39:23.155Z,19.40
2017-06-02T22:41:50.774Z,19.40
2017-06-02T22:44:18.347Z,19.40
2017-06-02T22:46:45.935Z,19.40
2017-06-02T22:49:13.544Z,19.40
2017-06-02T22:51:41.117Z,19.30
2017-06-02T22:54:08.707Z,19.20
2017-06-02T22:56:36.318Z,19.20
2017-06-02T22:59:03.914Z,19.10
2017-06-02T23:01:31.543Z,19.10
2017-06-02T23:03:59.148Z,19.00
2017-06-02T23:06:26.712Z,19.00
2017-06-02T23:08:54.383Z,19.00
2017-06-02T23:11:22.746Z,18.90
2017-06-02T23:13:50.339Z,18.80
2017-06-02T23:16:18.717Z,18.90
2017-06-02T23:18:47.059Z,18.90
2017-06-02T23:21:14.646Z,18.90
2017-06-02T23:23:42.251Z,18.90
2017-06-02T23:26:09.878Z,19.00
2017-06-02T23:28:37.525Z,19.00
2017-06-02T23:31:05.128Z,18.90
2017-06-02T23:33:32.711Z,18.90
2017-06-02T23:36:00.283Z,18.90
2017-06-02T23:38:27.921Z,18.90
2017-06-02T23:40:55.518Z,18.90
2017-06-02T23:43:23.883Z,18.90
2017-06-02T23:45:51.906Z,18.90
2017-06-02T23:48:19.502Z,18.90
2017-06-02T23:50:47.075Z,18.90
2017-06-02T23:53:14.675Z,18.90
2017-06-02T23:55:42.263Z,18.90
2017-06-02T23:58:09.881Z,18.80
